Time;durP1;ratioP1;P1;durP2;ratioP2;P2;SDS_P1;SDS_P2;PMS_P1;PMS_P2;Temp;Humidity;BMP_temperature;BMP_pressure;BME280_temperature;BME280_humidity;BME280_pressure;Samples;Min_cycle;Max_cycle;Signal;HPM_P1;HPM_P2
2023/05/27 00:01:13;;;;;;;;;;;;;;;15.56;100.00;99488.19;5031576;28;816;-56
2023/05/27 00:03:40;;;;;;;;;;;;;;;15.57;100.00;99489.75;5031570;28;891;-55
2023/05/27 00:06:07;;;;;;;;;;;;;;;15.54;100.00;99485.84;5031454;28;871;-56
2023/05/27 00:08:34;;;;;;;;;;;;;;;15.56;100.00;99493.78;5031589;28;832;-56
2023/05/27 00:11:01;;;;;;;;;;;;;;;15.59;100.00;99490.84;5031323;28;1886;-55
2023/05/27 00:13:28;;;;;;;;;;;;;;;15.63;100.00;99488.75;5031435;28;828;-55
2023/05/27 00:15:55;;;;;;;;;;;;;;;15.66;100.00;99485.09;5031405;28;825;-56
2023/05/27 00:18:22;;;;;;;;;;;;;;;15.68;100.00;99487.41;5031344;28;817;-55
2023/05/27 00:20:49;;;;;;;;;;;;;;;15.64;100.00;99493.09;5031204;28;1316;-55
2023/05/27 00:23:16;;;;;;;;;;;;;;;15.64;100.00;99495.09;5013613;28;1326;-56
2023/05/27 00:25:43;;;;;;;;;;;;;;;15.56;100.00;99494.53;5031305;28;887;-56
2023/05/27 00:28:10;;;;;;;;;;;;;;;15.50;100.00;99501.88;5031235;28;911;-56
2023/05/27 00:30:38;;;;;;;;;;;;;;;15.46;100.00;99492.84;5031346;28;1910;-56
2023/05/27 00:33:05;;;;;;;;;;;;;;;15.45;100.00;99488.53;5031218;28;864;-56
2023/05/27 00:35:32;;;;;;;;;;;;;;;15.46;100.00;99492.84;5031235;28;832;-55
2023/05/27 00:37:59;;;;;;;;;;;;;;;15.45;100.00;99494.09;5013541;28;942;-55
2023/05/27 00:40:29;;;;;;;;;;;;;;;15.45;100.00;99491.31;5031146;28;899;-56
2023/05/27 00:42:56;;;;;;;;;;;;;;;15.42;100.00;99494.97;5031087;28;876;-56
2023/05/27 00:45:23;;;;;;;;;;;;;;;15.35;100.00;99481.25;5031106;28;899;-56
2023/05/27 00:47:50;;;;;;;;;;;;;;;15.31;100.00;99489.72;5031112;28;881;-55
2023/05/27 00:50:18;;;;;;;;;;;;;;;15.32;100.00;99480.91;5031022;28;1918;-56
2023/05/27 00:52:46;;;;;;;;;;;;;;;15.26;100.00;99488.25;5031002;28;908;-56
2023/05/27 00:55:13;;;;;;;;;;;;;;;15.20;100.00;99480.91;5030961;28;887;-56
2023/05/27 00:57:43;;;;;;;;;;;;;;;15.10;100.00;99477.97;5030981;28;860;-56
2023/05/27 01:00:11;;;;;;;;;;;;;;;14.99;100.00;99483.06;5031003;28;853;-56
2023/05/27 01:02:40;;;;;;;;;;;;;;;15.00;100.00;99481.84;5031191;28;884;-56
2023/05/27 01:05:08;;;;;;;;;;;;;;;14.98;100.00;99481.50;5029777;28;817;-55
2023/05/27 01:07:42;;;;;;;;;;;;;;;14.97;100.00;99474.38;5030893;28;819;-56
2023/05/27 01:10:13;;;;;;;;;;;;;;;15.01;100.00;99471.50;5031070;28;1890;-56
2023/05/27 01:13:12;;;;;;;;;;;;;;;14.98;100.00;99459.25;5030926;28;883;-56
2023/05/27 01:15:40;;;;;;;;;;;;;;;14.95;100.00;99465.69;4997666;28;1229;-56
2023/05/27 01:18:09;;;;;;;;;;;;;;;14.91;100.00;99476.13;5030792;28;950;-55
2023/05/27 01:20:40;;;;;;;;;;;;;;;14.97;100.00;99479.16;5031917;28;1277;-56
2023/05/27 01:23:11;;;;;;;;;;;;;;;15.01;100.00;99474.28;5034382;28;868;-56
2023/05/27 01:25:38;;;;;;;;;;;;;;;15.06;100.00;99462.59;5034279;28;887;-55
2023/05/27 01:28:05;;;;;;;;;;;;;;;15.10;100.00;99457.69;5034241;28;894;-55
2023/05/27 01:30:32;;;;;;;;;;;;;;;15.06;100.00;99459.81;5034267;28;1946;-56
2023/05/27 01:33:07;;;;;;;;;;;;;;;14.95;100.00;99451.75;5034203;28;816;-55
2023/05/27 01:35:49;;;;;;;;;;;;;;;14.86;100.00;99449.63;5034215;28;859;-56
2023/05/27 01:38:20;;;;;;;;;;;;;;;14.89;100.00;99447.97;5034156;28;816;-55
2023/05/27 01:40:49;;;;;;;;;;;;;;;14.96;100.00;99456.13;5034000;28;895;-55
2023/05/27 01:43:17;;;;;;;;;;;;;;;14.95;100.00;99453.78;5033996;28;868;-55
2023/05/27 01:45:44;;;;;;;;;;;;;;;14.97;100.00;99454.88;5033950;28;935;-56
2023/05/27 01:48:11;;;;;;;;;;;;;;;15.04;100.00;99451.13;5033891;28;877;-55
2023/05/27 01:50:39;;;;;;;;;;;;;;;15.04;100.00;99454.69;5034089;28;1890;-55
2023/05/27 01:53:06;;;;;;;;;;;;;;;15.09;100.00;99454.16;5033778;28;824;-55
2023/05/27 01:55:33;;;;;;;;;;;;;;;15.08;100.00;99463.72;5033831;28;875;-54
2023/05/27 01:57:59;;;;;;;;;;;;;;;15.04;100.00;99459.47;5033710;28;864;-54
2023/05/27 02:00:26;;;;;;;;;;;;;;;15.03;100.00;99467.03;5033574;28;958;-56
2023/05/27 02:02:53;;;;;;;;;;;;;;;15.03;100.00;99464.25;5033678;28;808;-55
2023/05/27 02:05:20;;;;;;;;;;;;;;;14.99;100.00;99463.56;5033603;28;899;-55
2023/05/27 02:07:47;;;;;;;;;;;;;;;14.99;100.00;99452.44;5033558;28;841;-55
2023/05/27 02:10:14;;;;;;;;;;;;;;;15.01;100.00;99463.13;5033857;28;1885;-55
2023/05/27 02:12:41;;;;;;;;;;;;;;;15.01;100.00;99463.91;5033426;28;820;-54
2023/05/27 02:15:10;;;;;;;;;;;;;;;15.00;100.00;99456.81;5033362;28;1126;-54
2023/05/27 02:17:38;;;;;;;;;;;;;;;14.99;100.00;99458.00;5033324;28;843;-54
2023/05/27 02:20:06;;;;;;;;;;;;;;;15.01;100.00;99457.56;5033229;28;1380;-55
2023/05/27 02:22:33;;;;;;;;;;;;;;;15.01;100.00;99455.56;5033505;28;863;-55
2023/05/27 02:24:59;;;;;;;;;;;;;;;15.01;100.00;99455.56;5033710;28;789;-56
2023/05/27 02:27:26;;;;;;;;;;;;;;;15.01;100.00;99450.00;5033792;28;868;-56
2023/05/27 02:29:53;;;;;;;;;;;;;;;15.02;100.00;99448.78;5033903;28;789;-55
2023/05/27 02:32:21;;;;;;;;;;;;;;;15.03;100.00;99452.34;5033125;28;829;-55
2023/05/27 02:34:47;;;;;;;;;;;;;;;15.01;100.00;99452.00;5033237;28;828;-54
2023/05/27 02:37:15;;;;;;;;;;;;;;;15.03;100.00;99455.91;5033781;28;777;-54
2023/05/27 02:39:42;;;;;;;;;;;;;;;15.04;100.00;99462.25;5033308;28;876;-55
2023/05/27 02:42:09;;;;;;;;;;;;;;;15.04;100.00;99459.47;5033209;28;856;-55
2023/05/27 02:44:36;;;;;;;;;;;;;;;15.04;100.00;99467.81;5033141;28;800;-53
2023/05/27 02:47:03;;;;;;;;;;;;;;;15.04;100.00;99467.81;5033060;28;903;-55
2023/05/27 02:49:30;;;;;;;;;;;;;;;15.02;100.00;99471.06;5033157;28;835;-55
2023/05/27 02:51:57;;;;;;;;;;;;;;;15.03;100.00;99475.38;5032981;28;1882;-55
2023/05/27 02:54:24;;;;;;;;;;;;;;;15.07;100.00;99475.28;5032768;28;880;-55
2023/05/27 02:56:51;;;;;;;;;;;;;;;15.16;100.00;99471.88;5033021;28;915;-55
2023/05/27 02:59:18;;;;;;;;;;;;;;;15.23;100.00;99469.63;5033069;28;800;-55
2023/05/27 03:01:44;;;;;;;;;;;;;;;15.29;100.00;99470.66;5032815;28;827;-55
2023/05/27 03:04:11;;;;;;;;;;;;;;;15.40;100.00;99475.13;5032912;28;783;-55
2023/05/27 03:06:38;;;;;;;;;;;;;;;15.51;100.00;99475.59;5032562;28;812;-55
2023/05/27 03:09:07;;;;;;;;;;;;;;;15.60;100.00;99480.50;5015075;28;946;-55
2023/05/27 03:11:34;;;;;;;;;;;;;;;15.50;100.00;99457.31;5032529;28;1886;-55
2023/05/27 03:14:01;;;;;;;;;;;;;;;15.78;100.00;99491.13;5032479;28;871;-55
2023/05/27 03:16:28;;;;;;;;;;;;;;;15.85;100.00;99488.91;5032512;28;820;-55
2023/05/27 03:18:56;;;;;;;;;;;;;;;15.93;100.00;99497.81;5032447;28;907;-54
2023/05/27 03:21:23;;;;;;;;;;;;;;;16.02;100.00;99502.72;5032094;28;1331;-56
2023/05/27 03:23:49;;;;;;;;;;;;;;;16.08;100.00;99504.47;5032124;28;832;-55
2023/05/27 03:26:17;;;;;;;;;;;;;;;16.18;100.00;99513.75;5032157;28;868;-55
2023/05/27 03:28:44;;;;;;;;;;;;;;;16.27;100.00;99515.84;5032160;28;914;-55
2023/05/27 03:31:13;;;;;;;;;;;;;;;16.30;100.00;99517.72;5032129;28;1911;-55
2023/05/27 03:33:41;;;;;;;;;;;;;;;16.36;100.00;99520.72;5032141;28;1001;-55
2023/05/27 03:36:08;;;;;;;;;;;;;;;16.40;100.00;99526.97;5031939;28;888;-55
2023/05/27 03:38:35;;;;;;;;;;;;;;;16.43;100.00;99531.66;5014207;28;1199;-55
2023/05/27 03:41:03;;;;;;;;;;;;;;;16.46;100.00;99531.53;5031849;28;797;-55
2023/05/27 03:43:30;;;;;;;;;;;;;;;16.52;100.00;99529.75;5031393;28;893;-55
2023/05/27 03:45:57;;;;;;;;;;;;;;;16.61;100.00;99533.84;5031780;28;847;-55
2023/05/27 03:48:24;;;;;;;;;;;;;;;16.64;100.00;99528.16;5031766;28;907;-55
2023/05/27 03:50:51;;;;;;;;;;;;;;;16.67;100.00;99530.03;5031972;28;1886;-55
2023/05/27 03:53:18;;;;;;;;;;;;;;;16.70;100.00;99528.34;5031623;28;812;-55
2023/05/27 03:55:45;;;;;;;;;;;;;;;16.79;100.00;99533.22;5031792;28;824;-55
2023/05/27 03:58:13;;;;;;;;;;;;;;;16.83;100.00;99537.47;5031541;28;966;-55
2023/05/27 04:00:41;;;;;;;;;;;;;;;16.88;100.00;99531.34;5031530;28;981;-55
2023/05/27 04:03:12;;;;;;;;;;;;;;;16.98;100.00;99531.41;5031529;28;851;-55
2023/05/27 04:05:38;;;;;;;;;;;;;;;17.12;100.00;99531.69;5031537;28;880;-56
2023/05/27 04:08:06;;;;;;;;;;;;;;;17.22;100.00;99540.91;5031454;28;856;-55
2023/05/27 04:10:33;;;;;;;;;;;;;;;17.30;100.00;99535.84;5031818;28;1971;-55
2023/05/27 04:13:00;;;;;;;;;;;;;;;17.28;100.00;99543.88;5031550;28;883;-55
2023/05/27 04:15:27;;;;;;;;;;;;;;;17.42;100.00;99550.97;5031385;28;855;-55
2023/05/27 04:17:55;;;;;;;;;;;;;;;17.69;100.00;99550.38;5031356;28;871;-55
2023/05/27 04:20:22;;;;;;;;;;;;;;;17.92;100.00;99554.69;5030094;28;1436;-55
2023/05/27 04:22:50;;;;;;;;;;;;;;;18.13;100.00;99539.84;5030388;28;1271;-55
2023/05/27 04:25:17;;;;;;;;;;;;;;;18.31;100.00;99547.53;5013583;28;1305;-55
2023/05/27 04:27:44;;;;;;;;;;;;;;;18.41;100.00;99547.56;5031269;28;863;-55
2023/05/27 04:30:10;;;;;;;;;;;;;;;18.40;100.00;99557.22;5031174;28;2001;-55
2023/05/27 04:32:37;;;;;;;;;;;;;;;18.39;100.00;99556.41;5031310;28;903;-56
2023/05/27 04:35:07;;;;;;;;;;;;;;;18.46;100.00;99564.53;5031159;28;832;-55
2023/05/27 04:37:34;;;;;;;;;;;;;;;18.57;100.00;99556.47;5031370;28;888;-55
2023/05/27 04:40:02;;;;;;;;;;;;;;;18.74;100.00;99561.78;5031169;28;892;-56
2023/05/27 04:42:29;;;;;;;;;;;;;;;18.99;100.00;99566.34;5031099;28;813;-55
2023/05/27 04:44:56;;;;;;;;;;;;;;;19.24;100.00;99558.84;5031171;28;887;-55
2023/05/27 04:47:23;;;;;;;;;;;;;;;19.35;100.00;99568.34;5031125;28;827;-55
2023/05/27 04:49:51;;;;;;;;;;;;;;;19.41;100.00;99564.91;5031118;28;922;-53
2023/05/27 04:52:21;;;;;;;;;;;;;;;19.50;100.00;99564.88;5030897;28;1952;-54
2023/05/27 04:54:47;;;;;;;;;;;;;;;19.50;100.00;99564.88;5031846;28;836;-54
2023/05/27 04:57:18;;;;;;;;;;;;;;;19.51;100.00;99566.47;5034966;28;1033;-55
2023/05/27 05:02:34;;;;;;;;;;;;;;;20.01;100.00;99560.56;5034832;28;741;-55
2023/05/27 05:05:02;;;;;;;;;;;;;;;20.23;100.00;99558.31;5034736;28;914;-55
2023/05/27 05:07:30;;;;;;;;;;;;;;;20.63;100.00;99554.34;5034751;28;863;-54
2023/05/27 05:09:57;;;;;;;;;;;;;;;21.34;100.00;99552.72;5034754;28;872;-55
2023/05/27 05:12:26;;;;;;;;;;;;;;;21.70;100.00;99553.63;5034635;28;1882;-55
2023/05/27 05:14:53;;;;;;;;;;;;;;;21.52;100.00;99557.41;5034584;28;879;-54
2023/05/27 05:17:23;;;;;;;;;;;;;;;21.11;100.00;99557.13;5034552;28;906;-53
2023/05/27 05:19:52;;;;;;;;;;;;;;;20.89;100.00;99553.84;5034335;28;903;-54
2023/05/27 05:22:22;;;;;;;;;;;;;;;20.50;100.00;99548.94;5034127;28;1745;-55
2023/05/27 05:24:49;;;;;;;;;;;;;;;20.23;100.00;99555.50;5034407;28;808;-55
2023/05/27 05:27:17;;;;;;;;;;;;;;;19.90;100.00;99566.69;5034346;28;871;-55
2023/05/27 05:29:44;;;;;;;;;;;;;;;19.65;100.00;99560.22;5033007;28;1267;-55
2023/05/27 05:32:11;;;;;;;;;;;;;;;19.51;100.00;99566.47;5034146;28;1910;-55
2023/05/27 05:34:38;;;;;;;;;;;;;;;19.26;100.00;99573.19;5034154;28;955;-55
2023/05/27 05:37:06;;;;;;;;;;;;;;;19.15;100.00;99573.66;5034082;28;852;-55
2023/05/27 05:39:33;;;;;;;;;;;;;;;19.13;100.00;99567.72;5034117;28;872;-55
2023/05/27 05:42:01;;;;;;;;;;;;;;;19.18;100.00;99567.09;5033985;28;871;-55
2023/05/27 05:44:28;;;;;;;;;;;;;;;19.37;100.00;99559.47;5034110;28;848;-55
2023/05/27 05:46:55;;;;;;;;;;;;;;;19.65;100.00;99560.22;5033945;28;907;-55
2023/05/27 05:49:23;;;;;;;;;;;;;;;19.74;100.00;99563.00;5033854;28;875;-55
2023/05/27 05:51:50;;;;;;;;;;;;;;;19.61;100.00;99558.78;5033866;28;1882;-55
2023/05/27 05:54:17;;;;;;;;;;;;;;;19.46;100.00;99564.28;5034203;28;884;-55
2023/05/27 05:56:44;;;;;;;;;;;;;;;19.47;100.00;99565.84;5016485;28;1335;-55
2023/05/27 05:59:11;;;;;;;;;;;;;;;19.62;100.00;99572.34;5033818;28;816;-55
2023/05/27 06:01:37;;;;;;;;;;;;;;;19.91;100.00;99568.28;5034299;28;801;-55
2023/05/27 06:04:04;;;;;;;;;;;;;;;20.13;100.00;99571.59;5015865;28;872;-55
2023/05/27 06:06:30;;;;;;;;;;;;;;;20.25;100.00;99575.44;5033236;28;828;-55
2023/05/27 06:08:58;;;;;;;;;;;;;;;20.40;100.00;99584.72;5033458;28;999;-56
2023/05/27 06:11:26;;;;;;;;;;;;;;;20.40;100.00;99572.72;5033589;28;1927;-55
2023/05/27 06:13:53;;;;;;;;;;;;;;;20.34;100.00;99583.03;5033492;28;865;-55
2023/05/27 06:16:20;;;;;;;;;;;;;;;20.27;100.00;99586.19;5034109;28;848;-54
2023/05/27 06:18:47;;;;;;;;;;;;;;;20.16;100.00;99581.09;5033364;28;852;-56
2023/05/27 06:21:14;;;;;;;;;;;;;;;20.06;100.00;99593.63;5034029;28;816;-54
2023/05/27 06:23:41;;;;;;;;;;;;;;;19.94;100.00;99584.91;5033282;28;1301;-55
2023/05/27 06:26:09;;;;;;;;;;;;;;;19.99;100.00;99594.72;5033341;28;840;-55
2023/05/27 06:28:35;;;;;;;;;;;;;;;20.07;100.00;99590.31;5015954;28;1275;-55
2023/05/27 06:31:03;;;;;;;;;;;;;;;20.21;100.00;99594.50;5033205;28;1977;-55
2023/05/27 06:45:40;;;;;;;;;;;;;;;20.13;100.00;99601.69;5033192;28;655;-55
2023/05/27 06:48:07;;;;;;;;;;;;;;;19.92;100.00;99600.66;5032745;28;824;-55
2023/05/27 06:50:35;;;;;;;;;;;;;;;19.99;100.00;99597.50;5032647;28;1893;-55
2023/05/27 06:53:02;;;;;;;;;;;;;;;20.12;100.00;99597.31;5032760;28;883;-56
2023/05/27 06:55:30;;;;;;;;;;;;;;;20.17;100.00;99603.06;5032667;28;875;-55
2023/05/27 06:57:57;;;;;;;;;;;;;;;20.35;100.00;99596.59;5032630;28;872;-55
2023/05/27 07:00:25;;;;;;;;;;;;;;;20.62;100.00;99603.34;5032632;28;824;-56
2023/05/27 07:02:52;;;;;;;;;;;;;;;20.87;100.00;99599.31;5032485;28;824;-55
2023/05/27 07:05:20;;;;;;;;;;;;;;;20.79;100.00;99603.72;5032511;28;816;-56
2023/05/27 07:07:47;;;;;;;;;;;;;;;20.78;100.00;99600.13;5014756;28;871;-56
2023/05/27 07:10:14;;;;;;;;;;;;;;;20.57;100.00;99599.16;5032989;28;1941;-56
2023/05/27 07:12:42;;;;;;;;;;;;;;;20.37;100.00;99599.69;5033101;28;793;-55
2023/05/27 07:15:09;;;;;;;;;;;;;;;20.36;100.00;99611.41;5032825;28;839;-56
2023/05/27 07:17:36;;;;;;;;;;;;;;;20.31;100.00;99606.44;5032101;28;875;-56
2023/05/27 07:20:04;;;;;;;;;;;;;;;20.24;100.00;99601.16;5014484;28;1481;-56
2023/05/27 07:22:31;;;;;;;;;;;;;;;20.25;100.00;99600.72;5032254;28;1266;-56
2023/05/27 07:24:59;;;;;;;;;;;;;;;20.28;100.00;99605.34;5032212;28;866;-56
2023/05/27 07:27:26;;;;;;;;;;;;;;;20.45;100.00;99611.38;5032123;28;998;-56
2023/05/27 07:29:53;;;;;;;;;;;;;;;20.60;100.00;99605.84;5032107;28;864;-56
2023/05/27 07:32:22;;;;;;;;;;;;;;;20.74;100.00;99607.97;5031913;28;1973;-56
2023/05/27 07:34:48;;;;;;;;;;;;;;;20.88;100.00;99612.06;5031960;28;836;-56
2023/05/27 07:37:16;;;;;;;;;;;;;;;20.73;100.00;99611.25;5031923;28;891;-56
2023/05/27 07:39:42;;;;;;;;;;;;;;;20.72;100.00;99610.47;5031916;28;856;-56
2023/05/27 07:42:09;;;;;;;;;;;;;;;20.66;100.00;99612.38;5030585;28;919;-56
2023/05/27 07:44:36;;;;;;;;;;;;;;;20.71;100.00;99616.56;5031874;28;836;-56
2023/05/27 07:47:03;;;;;;;;;;;;;;;20.78;100.00;99608.56;5031944;28;844;-56
2023/05/27 07:49:30;;;;;;;;;;;;;;;20.89;100.00;99610.84;5031591;28;848;-57
2023/05/27 07:51:58;;;;;;;;;;;;;;;20.87;100.00;99610.53;5031650;28;1894;-56
2023/05/27 07:54:26;;;;;;;;;;;;;;;20.81;100.00;99606.81;5031642;28;937;-56
2023/05/27 07:56:54;;;;;;;;;;;;;;;20.97;100.00;99612.03;5031590;28;881;-56
2023/05/27 07:59:21;;;;;;;;;;;;;;;21.04;100.00;99610.09;5031755;28;829;-56
2023/05/27 08:01:48;;;;;;;;;;;;;;;20.97;100.00;99602.81;5031576;28;888;-56
2023/05/27 08:04:15;;;;;;;;;;;;;;;21.17;100.00;99607.81;5031519;28;851;-56
2023/05/27 08:06:42;;;;;;;;;;;;;;;21.08;100.00;99603.06;5013781;28;918;-56
2023/05/27 08:09:09;;;;;;;;;;;;;;;21.34;100.00;99608.94;5031527;28;969;-56
2023/05/27 08:11:36;;;;;;;;;;;;;;;21.49;100.00;99608.22;5031465;28;1918;-56
2023/05/27 08:14:03;;;;;;;;;;;;;;;21.55;100.00;99607.06;5031394;28;876;-56
2023/05/27 08:16:30;;;;;;;;;;;;;;;21.50;100.00;99609.75;5031363;28;864;-56
2023/05/27 08:18:57;;;;;;;;;;;;;;;21.41;100.00;99611.38;5031302;28;828;-56
2023/05/27 08:21:25;;;;;;;;;;;;;;;21.49;100.00;99613.84;5031297;28;852;-56
2023/05/27 08:23:52;;;;;;;;;;;;;;;21.65;100.00;99615.41;5031184;28;1352;-55
2023/05/27 08:26:20;;;;;;;;;;;;;;;21.75;100.00;99614.03;5031276;28;888;-56
2023/05/27 08:28:48;;;;;;;;;;;;;;;22.00;100.00;99607.84;5031290;28;808;-56
2023/05/27 08:31:15;;;;;;;;;;;;;;;22.16;100.00;99611.41;5035273;28;1910;-56
2023/05/27 08:33:40;;;;;;;;;;;;;;;22.71;100.00;99601.50;5035402;28;906;-56
2023/05/27 08:36:08;;;;;;;;;;;;;;;23.14;100.00;99605.38;5035328;28;847;-56
2023/05/27 08:38:36;;;;;;;;;;;;;;;23.43;100.00;99601.63;5035441;28;816;-55
2023/05/27 08:41:03;;;;;;;;;;;;;;;23.36;100.00;99604.09;5035272;28;836;-54
2023/05/27 08:43:30;;;;;;;;;;;;;;;22.91;100.00;99612.75;5035110;28;863;-55
2023/05/27 08:45:58;;;;;;;;;;;;;;;22.72;100.00;99608.66;5035200;28;833;-55
2023/05/27 08:48:26;;;;;;;;;;;;;;;22.74;100.00;99606.13;5034873;28;900;-55
2023/05/27 08:50:53;;;;;;;;;;;;;;;22.77;100.00;99605.16;5035040;28;1953;-55
2023/05/27 08:53:20;;;;;;;;;;;;;;;23.00;100.00;99601.41;5034969;28;891;-55
2023/05/27 08:55:51;;;;;;;;;;;;;;;23.00;100.00;99592.94;5035116;28;876;-56
2023/05/27 08:58:18;;;;;;;;;;;;;;;22.84;100.00;99585.00;5035132;28;860;-56
2023/05/27 09:00:45;;;;;;;;;;;;;;;22.72;100.00;99598.16;5033575;28;1216;-55
2023/05/27 09:03:12;;;;;;;;;;;;;;;23.09;100.00;99592.03;5034806;28;883;-55
2023/05/27 09:05:40;;;;;;;;;;;;;;;23.48;100.00;99585.25;5034743;28;860;-54
2023/05/27 09:08:07;;;;;;;;;;;;;;;24.18;100.00;99586.94;5034748;28;824;-56
2023/05/27 09:10:40;;;;;;;;;;;;;;;24.49;100.00;99577.63;5034862;28;1898;-54
2023/05/27 09:13:08;;;;;;;;;;;;;;;24.18;100.00;99573.56;5034774;28;864;-55
2023/05/27 09:15:35;;;;;;;;;;;;;;;24.33;100.00;99575.47;5034584;28;809;-55
2023/05/27 09:18:02;;;;;;;;;;;;;;;24.19;100.00;99571.53;5034615;28;847;-55
2023/05/27 09:20:31;;;;;;;;;;;;;;;23.92;100.00;99561.56;5034504;28;848;-55
2023/05/27 09:22:58;;;;;;;;;;;;;;;24.44;100.00;99558.59;5034227;28;1286;-55
2023/05/27 09:25:27;;;;;;;;;;;;;;;25.00;100.00;99560.94;5034340;28;892;-54
2023/05/27 09:27:55;;;;;;;;;;;;;;;25.84;100.00;99551.84;5034356;28;872;-56
2023/05/27 09:30:22;;;;;;;;;;;;;;;26.46;100.00;99549.72;5034174;28;1922;-55
2023/05/27 09:32:50;;;;;;;;;;;;;;;26.68;100.00;99550.97;5034227;28;832;-53
2023/05/27 09:35:17;;;;;;;;;;;;;;;25.81;100.00;99550.03;5034259;28;832;-52
2023/05/27 09:37:45;;;;;;;;;;;;;;;25.44;100.00;99543.34;5016456;28;833;-53
2023/05/27 10:11:13;;;;;;;;;;;;;;;24.88;100.00;99516.94;5082675;22;1882;-54
2023/05/27 10:13:40;;;;;;;;;;;;;;;24.62;100.00;99510.19;5053526;28;839;-55
2023/05/27 10:16:07;;;;;;;;;;;;;;;24.63;100.00;99519.44;5053387;28;831;-54
2023/05/27 10:18:34;;;;;;;;;;;;;;;24.55;100.00;99507.06;5053339;28;898;-52
2023/05/27 10:21:03;;;;;;;;;;;;;;;24.43;100.00;99504.16;5053334;28;831;-53
2023/05/27 10:23:31;;;;;;;;;;;;;;;25.18;100.00;99508.81;5053450;28;1293;-53
2023/05/27 10:25:57;;;;;;;;;;;;;;;25.72;100.00;99491.63;5054069;28;835;-55
2023/05/27 10:28:25;;;;;;;;;;;;;;;25.52;100.00;99504.00;5053453;28;922;-55
2023/05/27 10:30:52;;;;;;;;;;;;;;;25.11;100.00;99495.16;5053373;28;1901;-54
2023/05/27 10:33:34;;;;;;;;;;;;;;;24.56;100.00;99506.56;5053283;28;854;-53
2023/05/27 10:36:04;;;;;;;;;;;;;;;24.49;100.00;99497.78;5053134;28;895;-56
2023/05/27 10:38:31;;;;;;;;;;;;;;;24.21;100.00;99504.03;5035098;28;1366;-55
2023/05/27 10:41:00;;;;;;;;;;;;;;;23.91;100.00;99495.13;5052811;28;851;-55
2023/05/27 10:43:31;;;;;;;;;;;;;;;23.64;100.00;99494.34;5053317;28;874;-55
2023/05/27 10:46:12;;;;;;;;;;;;;;;23.34;100.00;99486.19;5052774;28;887;-55
2023/05/27 10:48:40;;;;;;;;;;;;;;;22.69;100.00;99482.91;5052744;28;916;-54
2023/05/27 10:51:08;;;;;;;;;;;;;;;21.92;100.00;99473.66;5052578;28;1882;-54
2023/05/27 10:53:35;;;;;;;;;;;;;;;21.57;100.00;99469.56;5051657;28;871;-53
2023/05/27 10:56:02;;;;;;;;;;;;;;;20.89;100.00;99459.16;5052640;28;859;-53
2023/05/27 10:58:29;;;;;;;;;;;;;;;20.15;100.00;99467.31;5052757;28;866;-54
2023/05/27 11:01:00;;;;;;;;;;;;;;;20.31;100.00;99454.88;5052515;28;839;-54
2023/05/27 11:03:27;;;;;;;;;;;;;;;21.07;100.00;99461.00;5052532;28;887;-55
2023/05/27 11:06:07;;;;;;;;;;;;;;;22.63;100.00;99466.69;5052520;28;792;-55
2023/05/27 11:08:35;;;;;;;;;;;;;;;24.67;100.00;99451.38;5052351;28;828;-55
2023/05/27 11:11:03;;;;;;;;;;;;;;;25.51;100.00;99448.69;5052075;28;1902;-55
2023/05/27 11:13:39;;;;;;;;;;;;;;;27.24;100.00;99437.25;5052341;28;894;-55
2023/05/27 11:16:06;;;;;;;;;;;;;;;28.43;100.00;99436.84;5052203;28;863;-54
2023/05/27 11:18:37;;;;;;;;;;;;;;;27.49;100.00;99446.59;5052187;28;895;-54
2023/05/27 11:21:05;;;;;;;;;;;;;;;25.98;100.00;99437.59;5052195;28;836;-55
2023/05/27 11:23:35;;;;;;;;;;;;;;;24.98;100.00;99430.63;5052221;28;860;-56
2023/05/27 11:26:02;;;;;;;;;;;;;;;24.36;100.00;99436.06;5052047;28;811;-55
2023/05/27 11:28:29;;;;;;;;;;;;;;;23.76;100.00;99439.59;5052069;28;835;-55
2023/05/27 11:30:58;;;;;;;;;;;;;;;23.13;100.00;99451.66;5051940;28;1885;-55
2023/05/27 11:33:32;;;;;;;;;;;;;;;22.72;100.00;99453.72;5051877;28;862;-55
2023/05/27 11:36:11;;;;;;;;;;;;;;;22.27;100.00;99453.97;5034299;28;1343;-55
2023/05/27 11:38:47;;;;;;;;;;;;;;;22.06;100.00;99463.63;5051768;28;927;-55
2023/05/27 11:41:14;;;;;;;;;;;;;;;21.90;100.00;99464.94;5051972;28;874;-55
2023/05/27 11:43:57;;;;;;;;;;;;;;;21.61;100.00;99450.47;5052060;28;895;-55
2023/05/27 11:46:32;;;;;;;;;;;;;;;21.42;100.00;99457.53;5051672;28;903;-55
2023/05/27 11:48:59;;;;;;;;;;;;;;;21.22;100.00;99441.34;5033902;28;879;-55
2023/05/27 11:51:29;;;;;;;;;;;;;;;20.45;100.00;99442.19;5051590;28;1889;-53
2023/05/27 11:53:58;;;;;;;;;;;;;;;19.08;100.00;99440.31;5051686;28;906;-54
2023/05/27 11:56:25;;;;;;;;;;;;;;;18.14;100.00;99465.16;5051517;28;840;-56
2023/05/27 11:58:52;;;;;;;;;;;;;;;17.80;100.00;99464.06;5051608;28;907;-56
2023/05/27 12:01:19;;;;;;;;;;;;;;;17.63;100.00;99462.78;5051511;28;859;-56
2023/05/27 12:03:46;;;;;;;;;;;;;;;17.56;100.00;99458.25;5051250;28;860;-56
2023/05/27 12:06:13;;;;;;;;;;;;;;;17.44;100.00;99464.69;5051451;28;823;-56
2023/05/27 12:08:41;;;;;;;;;;;;;;;17.35;100.00;99471.03;5051412;28;827;-55
2023/05/27 12:11:07;;;;;;;;;;;;;;;17.30;100.00;99466.00;5029904;28;1938;-57
2023/05/27 12:13:35;;;;;;;;;;;;;;;17.29;100.00;99470.81;5031519;28;844;-57
2023/05/27 12:16:03;;;;;;;;;;;;;;;17.31;100.00;99487.13;5031527;28;855;-58
2023/05/27 12:18:30;;;;;;;;;;;;;;;17.43;100.00;99491.06;5031376;28;915;-59
2023/05/27 12:20:57;;;;;;;;;;;;;;;17.49;100.00;99503.97;5031443;28;890;-58
2023/05/27 12:23:25;;;;;;;;;;;;;;;17.35;100.00;99504.53;5031424;28;824;-58
2023/05/27 12:25:52;;;;;;;;;;;;;;;17.27;100.00;99506.81;5031311;28;902;-58
2023/05/27 12:28:18;;;;;;;;;;;;;;;17.31;100.00;99495.50;5031609;28;811;-59
2023/05/27 12:30:47;;;;;;;;;;;;;;;17.31;100.00;99490.69;5031549;28;1893;-59
2023/05/27 12:33:13;;;;;;;;;;;;;;;17.25;100.00;99497.31;5031590;28;877;-61
2023/05/27 12:35:40;;;;;;;;;;;;;;;17.13;100.00;99487.78;5031317;28;843;-60
2023/05/27 12:38:08;;;;;;;;;;;;;;;17.02;100.00;99482.59;5031171;28;927;-63
2023/05/27 12:40:38;;;;;;;;;;;;;;;16.91;100.00;99474.59;5031222;28;958;-78
2023/05/27 12:43:06;;;;;;;;;;;;;;;16.92;100.00;99483.78;5030262;28;1192;-67
2023/05/27 12:45:33;;;;;;;;;;;;;;;17.00;100.00;99482.25;5031235;28;831;-66
2023/05/27 12:48:01;;;;;;;;;;;;;;;17.01;100.00;99485.84;5031448;28;847;-63
2023/05/27 12:50:28;;;;;;;;;;;;;;;17.00;100.00;99490.63;5031146;28;1911;-68
2023/05/27 12:52:55;;;;;;;;;;;;;;;16.97;100.00;99488.00;5029862;28;1204;-69
2023/05/27 12:55:22;;;;;;;;;;;;;;;16.88;100.00;99483.13;5031253;28;840;-65
2023/05/27 12:57:50;;;;;;;;;;;;;;;16.81;100.00;99484.13;5031085;28;859;-65
2023/05/27 13:00:17;;;;;;;;;;;;;;;16.78;100.00;99484.25;5031142;28;835;-66
2023/05/27 13:02:46;;;;;;;;;;;;;;;16.78;100.00;99468.28;5030994;28;832;-66
2023/05/27 13:05:14;;;;;;;;;;;;;;;16.82;100.00;99463.38;5031367;28;832;-68
2023/05/27 13:07:52;;;;;;;;;;;;;;;16.91;100.00;99452.25;5031084;28;872;-68
2023/05/27 13:10:21;;;;;;;;;;;;;;;16.96;100.00;99458.50;5037030;28;1263;-66
2023/05/27 13:12:48;;;;;;;;;;;;;;;17.05;100.00;99453.00;5051074;28;858;-66
2023/05/27 13:15:16;;;;;;;;;;;;;;;17.01;100.00;99452.34;5050849;28;875;-67
2023/05/27 13:17:45;;;;;;;;;;;;;;;16.93;100.00;99460.97;5035737;28;1286;-68
2023/05/27 13:20:13;;;;;;;;;;;;;;;16.91;100.00;99459.88;5054552;28;804;-67
2023/05/27 13:22:41;;;;;;;;;;;;;;;17.07;100.00;99465.25;5054425;28;828;-65
2023/05/27 13:25:08;;;;;;;;;;;;;;;17.12;100.00;99456.28;5054354;28;804;-67
2023/05/27 13:27:35;;;;;;;;;;;;;;;17.20;100.00;99459.59;5054383;28;847;-68
2023/05/27 13:30:03;;;;;;;;;;;;;;;17.24;100.00;99463.03;5054294;28;819;-68
2023/05/27 13:32:30;;;;;;;;;;;;;;;17.23;100.00;99460.69;5036630;28;1882;-70
2023/05/27 13:34:56;;;;;;;;;;;;;;;17.18;100.00;99466.88;5054410;28;883;-67
2023/05/27 13:37:23;;;;;;;;;;;;;;;17.10;100.00;99457.97;5054055;28;974;-66
2023/05/27 13:39:50;;;;;;;;;;;;;;;16.94;100.00;99456.16;5054154;28;899;-66
2023/05/27 13:42:16;;;;;;;;;;;;;;;16.73;100.00;99466.84;5054052;28;847;-66
2023/05/27 13:44:43;;;;;;;;;;;;;;;16.54;100.00;99471.50;5054032;28;832;-66